Time;durP1;ratioP1;P1;durP2;ratioP2;P2;SDS_P1;SDS_P2;PMS_P1;PMS_P2;Temp;Humidity;BMP_temperature;BMP_pressure;BME280_temperature;BME280_humidity;BME280_pressure;Samples;Min_cycle;Max_cycle;Signal;HPM_P1;HPM_P2
2021/07/31 00:01:10;;;;;;;2.00;1.10;;;;;;;17.45;67.51;99922.66;125313;1093;64268;-81
2021/07/31 00:03:37;;;;;;;2.87;1.10;;;;;;;17.44;67.92;99923.69;125282;1093;64955;-83
2021/07/31 00:06:25;;;;;;;1.83;0.80;;;;;;;17.43;68.04;99916.72;125366;1093;64796;-83
2021/07/31 00:08:52;;;;;;;2.40;1.00;;;;;;;17.42;68.25;99909.70;125324;1093;64387;-83
2021/07/31 00:11:19;;;;;;;3.87;1.27;;;;;;;17.40;67.90;99901.89;125522;1093;64285;-83
2021/07/31 00:13:47;;;;;;;2.10;0.90;;;;;;;17.43;67.28;99914.84;125485;1093;64310;-83
2021/07/31 00:16:14;;;;;;;1.80;0.90;;;;;;;17.48;66.88;99895.34;125237;1092;64303;-82
2021/07/31 00:18:42;;;;;;;2.90;1.50;;;;;;;17.51;66.67;99903.73;125357;1093;64281;-82
2021/07/31 00:21:09;;;;;;;4.60;1.10;;;;;;;17.54;66.22;99913.16;125514;1093;64326;-84
2021/07/31 00:23:36;;;;;;;3.60;1.20;;;;;;;17.56;66.18;99900.33;126297;1093;64268;-83
2021/07/31 00:26:03;;;;;;;2.57;1.20;;;;;;;17.57;66.31;99893.90;125646;1093;64285;-82
2021/07/31 00:28:31;;;;;;;2.10;1.10;;;;;;;17.58;65.86;99887.50;126513;1092;64226;-80
2021/07/31 00:30:58;;;;;;;4.43;1.10;;;;;;;17.58;66.20;99900.91;126202;1093;64232;-81
2021/07/31 00:33:25;;;;;;;1.70;0.90;;;;;;;17.57;66.49;99895.77;126382;1093;64393;-81
2021/07/31 00:35:52;;;;;;;2.17;0.70;;;;;;;17.55;66.73;99892.52;125334;1092;64272;-82
2021/07/31 00:38:20;;;;;;;3.00;0.90;;;;;;;17.51;66.93;99892.17;126199;1093;64291;-81
2021/07/31 00:40:47;;;;;;;1.27;0.70;;;;;;;17.45;67.38;99888.60;125374;1093;64265;-82
2021/07/31 00:43:14;;;;;;;1.50;0.80;;;;;;;17.40;67.80;99893.05;125395;1093;64245;-82
2021/07/31 00:45:41;;;;;;;2.90;1.30;;;;;;;17.33;68.10;99891.32;125325;1093;64303;-82
2021/07/31 00:48:09;;;;;;;3.57;1.10;;;;;;;17.27;67.94;99886.11;125435;1093;64262;-81
2021/07/31 00:50:36;;;;;;;4.20;1.30;;;;;;;17.20;68.52;99880.89;125670;1093;64381;-80
2021/07/31 00:53:04;;;;;;;2.60;1.10;;;;;;;17.15;68.68;99879.97;126492;1093;64303;-82
2021/07/31 00:55:32;;;;;;;5.27;1.20;;;;;;;17.11;69.60;99895.73;126287;1093;64189;-79
2021/07/31 00:58:00;;;;;;;4.77;1.37;;;;;;;17.06;69.60;99890.25;125420;1093;64209;-80
2021/07/31 01:00:27;;;;;;;4.47;0.90;;;;;;;17.02;69.85;99897.13;125177;1093;64282;-81
2021/07/31 01:02:54;;;;;;;3.30;1.57;;;;;;;16.99;69.87;99901.10;125195;1093;64613;-80
2021/07/31 01:05:22;;;;;;;2.13;1.00;;;;;;;16.97;70.31;99897.84;125206;1093;64322;-80
2021/07/31 01:07:51;;;;;;;5.10;1.10;;;;;;;16.95;70.17;99899.14;125225;1093;64266;-80
2021/07/31 01:10:20;;;;;;;1.53;0.90;;;;;;;16.90;70.54;99886.45;125116;1093;64409;-81
2021/07/31 01:12:49;;;;;;;1.75;1.10;;;;;;;16.85;70.34;99897.05;125504;1093;64243;-80
2021/07/31 01:15:16;;;;;;;2.23;1.00;;;;;;;16.80;71.61;99894.24;125223;1093;64307;-82
2021/07/31 01:17:43;;;;;;;1.67;0.90;;;;;;;16.75;71.36;99889.59;125251;1093;64193;-81
2021/07/31 01:20:11;;;;;;;2.13;0.90;;;;;;;16.69;71.93;99883.30;125288;1093;64195;-80
2021/07/31 01:22:39;;;;;;;4.00;1.20;;;;;;;16.65;72.30;99887.50;125339;1091;64242;-83
2021/07/31 01:25:08;;;;;;;5.80;1.10;;;;;;;16.59;72.22;99890.30;125295;1093;64272;-80
2021/07/31 01:27:38;;;;;;;3.03;1.10;;;;;;;16.53;72.75;99893.91;128023;1093;63947;-81
2021/07/31 01:30:06;;;;;;;2.53;1.30;;;;;;;16.45;72.58;99892.42;126346;1093;64123;-78
2021/07/31 01:32:33;;;;;;;1.90;1.03;;;;;;;16.36;73.10;99897.28;125156;1093;64249;-80
2021/07/31 01:35:01;;;;;;;5.77;1.70;;;;;;;16.28;72.88;99895.79;125177;1092;64159;-80
2021/07/31 01:37:30;;;;;;;2.83;1.40;;;;;;;16.19;73.67;99891.80;125511;1093;62820;-79
2021/07/31 01:39:58;;;;;;;1.53;0.80;;;;;;;16.13;74.44;99906.14;125582;1093;64667;-80
2021/07/31 01:42:26;;;;;;;2.00;0.93;;;;;;;16.07;74.44;99899.03;125445;1093;64368;-81
2021/07/31 01:44:53;;;;;;;2.80;0.90;;;;;;;16.00;75.02;99895.63;125118;1092;64265;-81
2021/07/31 01:47:20;;;;;;;3.00;1.33;;;;;;;15.92;74.89;99903.98;125147;1093;64390;-80
2021/07/31 01:49:47;;;;;;;2.73;1.23;;;;;;;15.85;75.62;99902.25;125054;1093;64269;-81
2021/07/31 01:52:14;;;;;;;3.45;1.30;;;;;;;15.81;76.53;99903.75;125245;1093;64259;-81
2021/07/31 01:54:41;;;;;;;3.70;1.20;;;;;;;15.77;76.79;99909.75;125368;1093;64336;-79
2021/07/31 01:57:09;;;;;;;2.83;1.17;;;;;;;15.76;76.58;99908.14;125148;1092;64281;-84
2021/07/31 01:59:41;;;;;;;3.10;1.10;;;;;;;15.74;77.00;99902.20;125255;1093;64294;-77
2021/07/31 02:02:10;;;;;;;2.57;1.00;;;;;;;15.71;76.57;99900.77;125265;1093;64269;-79
2021/07/31 02:04:37;;;;;;;4.10;1.30;;;;;;;15.69;76.61;99894.84;125220;1092;64192;-80
2021/07/31 02:07:04;;;;;;;4.65;1.60;;;;;;;15.67;76.68;99892.39;125301;1092;65028;-79
2021/07/31 02:09:31;;;;;;;3.63;1.10;;;;;;;15.68;76.04;99899.38;125278;1092;64291;-80
2021/07/31 02:12:00;;;;;;;2.77;1.10;;;;;;;15.72;75.30;99888.25;125129;1092;64429;-79
2021/07/31 02:14:27;;;;;;;3.53;1.10;;;;;;;15.73;74.61;99882.67;125210;1093;64273;-80
2021/07/31 02:16:55;;;;;;;2.83;1.27;;;;;;;15.73;73.96;99879.20;125397;1092;64268;-81
2021/07/31 02:19:22;;;;;;;3.73;1.30;;;;;;;15.75;73.03;99875.24;125097;1092;64211;-79
2021/07/31 02:21:51;;;;;;;3.57;0.90;;;;;;;15.78;72.64;99864.08;125178;1092;64629;-80
2021/07/31 02:24:18;;;;;;;1.87;0.90;;;;;;;15.83;71.67;99855.36;125098;1093;64273;-83
2021/07/31 02:26:45;;;;;;;4.13;1.10;;;;;;;15.89;71.77;99857.92;125214;1093;64298;-81
2021/07/31 02:29:12;;;;;;;6.25;1.20;;;;;;;15.87;71.27;99838.64;124997;1093;64307;-81
2021/07/31 02:31:42;;;;;;;2.47;1.00;;;;;;;15.85;71.23;99846.09;125146;1093;65002;-79
2021/07/31 02:34:10;;;;;;;3.33;1.07;;;;;;;15.83;71.18;99850.01;125156;1093;64236;-81
2021/07/31 02:36:38;;;;;;;2.07;0.90;;;;;;;15.83;70.52;99847.34;125235;1093;64287;-84
2021/07/31 02:39:05;;;;;;;4.37;0.73;;;;;;;15.81;70.44;99854.77;125222;1093;64245;-81
2021/07/31 02:41:32;;;;;;;6.25;1.20;;;;;;;15.80;70.07;99840.59;125258;1093;64216;-83
2021/07/31 02:43:59;;;;;;;3.67;1.10;;;;;;;15.81;69.68;99836.89;125344;1093;64193;-81
2021/07/31 02:46:26;;;;;;;3.33;1.00;;;;;;;15.81;69.83;99841.41;125264;1092;64527;-81
2021/07/31 02:48:54;;;;;;;7.00;1.33;;;;;;;15.80;69.89;99842.46;125338;1092;64334;-81
2021/07/31 02:51:21;;;;;;;2.67;1.33;;;;;;;15.76;70.00;99841.29;125469;1093;64291;-83
2021/07/31 02:53:48;;;;;;;3.23;0.93;;;;;;;15.74;69.80;99838.03;125273;1093;64339;-83
2021/07/31 02:56:15;;;;;;;1.97;0.93;;;;;;;15.70;70.08;99846.49;125320;1093;64242;-83
2021/07/31 02:58:42;;;;;;;5.55;1.00;;;;;;;15.68;70.04;99834.38;125230;1093;64327;-82
2021/07/31 03:01:10;;;;;;;2.30;1.03;;;;;;;15.63;70.27;99835.06;125228;1092;64642;-84
2021/07/31 03:03:37;;;;;;;5.90;1.17;;;;;;;15.59;70.62;99838.43;125349;1092;64268;-82
2021/07/31 03:06:04;;;;;;;5.87;1.27;;;;;;;15.53;70.37;99832.13;125301;1092;64157;-80
2021/07/31 03:08:31;;;;;;;3.60;1.10;;;;;;;15.49;70.50;99836.30;125046;1092;64311;-81
2021/07/31 03:11:04;;;;;;;2.20;0.90;;;;;;;15.45;70.69;99835.97;125241;1092;64265;-81
2021/07/31 03:13:31;;;;;;;3.23;1.17;;;;;;;15.41;70.97;99837.45;125235;1093;64406;-84
2021/07/31 03:15:59;;;;;;;5.13;0.90;;;;;;;15.37;70.34;99836.28;125301;1093;64288;-79
2021/07/31 03:18:26;;;;;;;4.73;1.07;;;;;;;15.35;70.65;99830.34;125371;1092;64296;-82
2021/07/31 03:20:55;;;;;;;1.93;0.80;;;;;;;15.32;71.05;99827.30;125131;1093;64283;-83
2021/07/31 03:23:25;;;;;;;2.10;0.73;;;;;;;15.28;70.54;99825.10;125115;1093;64214;-81
2021/07/31 03:25:57;;;;;;;2.05;0.90;;;;;;;15.26;70.26;99818.36;125451;1092;64195;-81
2021/07/31 03:28:26;;;;;;;3.80;0.80;;;;;;;15.25;70.55;99819.39;125266;1093;64377;-80
2021/07/31 03:30:54;;;;;;;2.47;0.60;;;;;;;15.21;70.50;99827.03;125489;1093;64246;-81
2021/07/31 03:33:21;;;;;;;1.93;0.73;;;;;;;15.18;70.52;99832.03;125584;1093;64207;-81
2021/07/31 03:35:50;;;;;;;4.33;1.03;;;;;;;15.14;70.54;99828.19;127405;1093;64178;-80
2021/07/31 03:38:18;;;;;;;4.30;1.15;;;;;;;15.12;70.19;99823.05;126356;1092;64284;-80
2021/07/31 03:40:45;;;;;;;4.07;1.33;;;;;;;15.14;70.06;99812.96;126605;1092;64763;-81
2021/07/31 03:43:13;;;;;;;5.13;1.33;;;;;;;15.19;69.94;99828.30;125384;1091;64281;-82
2021/07/31 03:45:40;;;;;;;4.23;1.10;;;;;;;15.24;69.86;99825.79;125367;1093;64265;-82
2021/07/31 03:48:08;;;;;;;3.83;1.00;;;;;;;15.32;69.32;99821.96;125301;1093;64285;-82
2021/07/31 03:50:41;;;;;;;4.83;2.30;;;;;;;15.34;68.96;99831.38;125284;1093;64284;-80
2021/07/31 03:53:11;;;;;;;2.20;0.93;;;;;;;15.38;69.11;99821.86;125340;1093;64301;-81
2021/07/31 03:55:38;;;;;;;4.47;0.90;;;;;;;15.37;69.02;99830.94;125173;1093;64227;-81
2021/07/31 03:58:06;;;;;;;5.07;0.80;;;;;;;15.34;69.35;99831.38;125279;1091;64192;-84
2021/07/31 04:00:33;;;;;;;2.33;0.97;;;;;;;15.33;69.22;99828.95;125276;1093;64281;-82
2021/07/31 04:03:00;;;;;;;5.47;1.07;;;;;;;15.36;69.51;99828.48;125300;1093;64288;-82
2021/07/31 04:05:31;;;;;;;1.43;1.00;;;;;;;15.41;68.69;99825.96;125707;1092;64288;-81
2021/07/31 04:07:58;;;;;;;2.90;0.83;;;;;;;15.47;68.70;99825.86;126565;1093;64273;-81
2021/07/31 04:10:25;;;;;;;5.53;1.37;;;;;;;15.52;68.91;99821.69;126179;1093;64273;-81
2021/07/31 04:12:53;;;;;;;4.27;1.83;;;;;;;15.56;69.09;99829.02;125136;1093;64329;-82
2021/07/31 04:15:20;;;;;;;3.80;0.97;;;;;;;15.58;68.59;99823.45;125251;1093;64243;-82
2021/07/31 04:17:47;;;;;;;2.10;0.90;;;;;;;15.60;68.72;99827.52;125294;1092;64249;-82
2021/07/31 04:20:15;;;;;;;3.37;0.87;;;;;;;15.62;68.72;99822.75;125335;1093;64339;-83
2021/07/31 04:22:42;;;;;;;4.60;1.10;;;;;;;15.65;68.20;99819.61;125135;1093;64298;-80
2021/07/31 04:25:09;;;;;;;2.67;0.80;;;;;;;15.69;67.98;99822.65;126447;1093;64160;-80
2021/07/31 04:27:36;;;;;;;5.23;1.33;;;;;;;15.74;68.05;99821.98;125291;1092;64269;-79
2021/07/31 04:30:05;;;;;;;3.37;1.00;;;;;;;15.78;67.57;99823.16;125360;1093;64211;-80
2021/07/31 04:32:32;;;;;;;4.20;1.20;;;;;;;15.83;67.87;99824.10;125292;1093;64349;-83
2021/07/31 04:35:02;;;;;;;2.47;1.00;;;;;;;15.88;67.71;99824.22;125307;1093;64362;-82
2021/07/31 04:37:30;;;;;;;2.90;0.80;;;;;;;15.94;67.72;99832.34;125330;1093;64266;-80
2021/07/31 04:39:58;;;;;;;4.20;1.00;;;;;;;15.99;67.14;99829.81;125346;1093;64326;-81
2021/07/31 04:42:26;;;;;;;4.10;1.20;;;;;;;16.04;66.70;99824.56;125286;1092;64266;-80
2021/07/31 04:44:53;;;;;;;3.67;1.10;;;;;;;16.09;66.57;99819.34;125312;1093;64288;-82
2021/07/31 04:47:24;;;;;;;4.37;1.20;;;;;;;16.15;66.64;99823.78;125141;1092;64317;-83
2021/07/31 04:49:52;;;;;;;2.17;1.00;;;;;;;16.21;65.96;99819.33;125075;1093;64253;-80
2021/07/31 04:52:19;;;;;;;3.00;1.00;;;;;;;16.23;65.62;99820.72;125198;1093;64307;-80
2021/07/31 04:54:46;;;;;;;2.37;0.87;;;;;;;16.27;65.84;99824.56;125214;1093;64887;-81
2021/07/31 04:57:14;;;;;;;2.33;0.70;;;;;;;16.31;65.93;99819.56;125252;1093;64195;-81
2021/07/31 04:59:41;;;;;;;4.83;0.90;;;;;;;16.40;65.38;99820.83;125571;1091;64195;-81
2021/07/31 05:02:08;;;;;;;2.27;0.87;;;;;;;16.50;64.84;99817.56;128352;1093;61920;-80
2021/07/31 05:04:36;;;;;;;2.77;0.70;;;;;;;16.59;64.91;99816.14;126341;1093;64358;-82
2021/07/31 05:07:03;;;;;;;4.17;1.17;;;;;;;16.67;64.71;99807.74;126309;1093;64274;-80
2021/07/31 05:09:30;;;;;;;3.93;0.83;;;;;;;16.80;63.71;99805.86;126532;1093;64217;-82
2021/07/31 05:12:05;;;;;;;2.70;0.70;;;;;;;16.88;63.87;99809.00;125560;1093;64373;-82
2021/07/31 05:14:32;;;;;;;;;;;;;;;16.92;63.43;99803.98;126350;1093;64131;-82
2021/07/31 05:16:59;;;;;;;3.03;1.00;;;;;;;16.91;62.51;99821.91;126362;1093;64307;-81
2021/07/31 05:19:27;;;;;;;4.80;0.87;;;;;;;16.93;62.93;99800.24;126379;1091;64237;-81
2021/07/31 05:21:55;;;;;;;3.97;0.70;;;;;;;16.97;62.67;99806.75;125770;1092;64268;-82
2021/07/31 05:24:22;;;;;;;2.90;1.00;;;;;;;16.97;62.35;99803.27;126225;1093;64274;-83
2021/07/31 05:26:49;;;;;;;2.37;0.90;;;;;;;16.97;62.75;99812.11;125838;1093;64230;-83
2021/07/31 05:29:16;;;;;;;3.77;0.80;;;;;;;17.03;62.53;99802.31;126098;1092;64291;-81
2021/07/31 05:31:44;;;;;;;3.60;1.03;;;;;;;17.12;62.60;99815.07;125699;1093;64288;-82
2021/07/31 05:34:11;;;;;;;8.77;1.20;;;;;;;17.21;62.14;99812.81;125394;1093;64670;-79
2021/07/31 05:36:39;;;;;;;1.63;1.13;;;;;;;17.26;62.01;99812.92;125917;1092;64160;-82
2021/07/31 05:39:07;;;;;;;3.93;1.10;;;;;;;17.29;61.25;99808.95;126497;1093;64192;-83
2021/07/31 05:41:34;;;;;;;6.07;1.57;;;;;;;17.34;61.33;99819.78;125286;1093;64954;-80
2021/07/31 05:44:01;;;;;;;5.93;1.10;;;;;;;17.38;60.80;99834.30;125316;1092;64294;-81
2021/07/31 05:46:29;;;;;;;6.33;0.83;;;;;;;17.42;60.79;99848.05;125432;1092;64344;-84
2021/07/31 05:48:59;;;;;;;2.60;0.77;;;;;;;17.39;60.48;99835.94;125251;1093;64397;-83
2021/07/31 05:51:27;;;;;;;5.77;1.40;;;;;;;17.35;60.65;99824.07;125101;1092;64224;-82
2021/07/31 05:53:54;;;;;;;3.50;0.90;;;;;;;17.30;60.96;99832.03;125462;1091;64299;-83
2021/07/31 05:56:22;;;;;;;2.73;1.07;;;;;;;17.28;60.69;99812.70;125668;1093;64175;-81
2021/07/31 05:58:49;;;;;;;2.63;0.93;;;;;;;17.36;60.85;99819.52;125492;1093;64198;-80
2021/07/31 06:01:16;;;;;;;3.45;1.00;;;;;;;17.41;60.10;99807.02;125553;1093;64150;-87
2021/07/31 06:03:43;;;;;;;3.47;1.07;;;;;;;17.52;60.45;99806.13;125359;1092;64352;-82
2021/07/31 06:06:11;;;;;;;3.23;0.80;;;;;;;17.59;60.38;99818.58;125448;1093;65356;-81
2021/07/31 06:08:38;;;;;;;6.60;1.40;;;;;;;17.65;59.51;99802.32;125547;1093;64195;-81
2021/07/31 06:11:06;;;;;;;4.73;1.23;;;;;;;17.74;59.14;99805.41;125686;1093;64169;-82
2021/07/31 06:13:34;;;;;;;3.27;1.00;;;;;;;17.81;59.41;99806.08;125534;1093;64245;-84
2021/07/31 06:16:01;;;;;;;7.43;0.97;;;;;;;17.80;58.25;99803.63;125365;1093;64237;-81
2021/07/31 06:18:29;;;;;;;3.33;1.20;;;;;;;17.81;58.44;99811.44;125298;1092;64415;-82
2021/07/31 06:20:56;;;;;;;2.40;0.70;;;;;;;17.80;59.29;99814.36;125287;1093;64192;-81
2021/07/31 06:23:23;;;;;;;5.70;1.30;;;;;;;17.73;59.05;99793.88;125627;1093;64285;-81
2021/07/31 06:25:51;;;;;;;3.40;0.87;;;;;;;17.69;59.10;99802.66;126324;1093;64229;-80
2021/07/31 06:28:18;;;;;;;6.93;1.10;;;;;;;17.66;59.03;99813.86;127068;1093;64198;-81
2021/07/31 06:30:45;;;;;;;9.10;1.27;;;;;;;17.64;58.97;99807.95;125415;1093;64432;-81
2021/07/31 06:33:13;;;;;;;3.47;0.93;;;;;;;17.63;59.58;99790.22;125987;1093;64546;-81
2021/07/31 06:35:40;;;;;;;2.67;0.90;;;;;;;17.66;59.56;99781.67;125802;1093;64218;-80
2021/07/31 06:38:07;;;;;;;5.17;0.93;;;;;;;17.66;59.43;99806.64;125373;1093;64281;-83
2021/07/31 06:40:35;;;;;;;3.17;0.83;;;;;;;17.67;59.41;99802.09;125308;1093;64364;-78
2021/07/31 06:43:04;;;;;;;5.43;0.90;;;;;;;17.70;59.79;99801.59;125547;1093;64269;-82
2021/07/31 06:45:33;;;;;;;6.70;1.30;;;;;;;17.75;59.55;99788.27;125296;1093;64316;-81
2021/07/31 06:48:00;;;;;;;2.13;0.83;;;;;;;17.89;59.29;99800.34;125351;1093;64326;-80
2021/07/31 06:50:28;;;;;;;2.03;0.80;;;;;;;18.10;58.97;99809.48;125308;1093;64329;-81
2021/07/31 06:52:55;;;;;;;2.40;0.87;;;;;;;18.26;57.48;99797.09;125212;1093;64189;-81
2021/07/31 06:55:22;;;;;;;4.73;0.80;;;;;;;18.31;57.83;99807.89;125282;1093;64240;-77
2021/07/31 06:57:49;;;;;;;3.93;1.10;;;;;;;18.37;56.88;99807.98;124968;1093;64288;-77
2021/07/31 07:00:16;;;;;;;3.20;0.87;;;;;;;18.51;57.61;99822.68;124913;1093;64271;-76
2021/07/31 07:02:44;;;;;;;3.70;0.80;;;;;;;18.59;56.52;99816.84;124891;1093;64333;-77
2021/07/31 07:05:11;;;;;;;4.73;1.20;;;;;;;18.70;56.78;99825.84;124991;1093;64269;-78
2021/07/31 07:07:38;;;;;;;3.20;0.83;;;;;;;18.73;55.87;99814.62;124797;1093;64332;-78
2021/07/31 07:10:07;;;;;;;1.37;0.73;;;;;;;18.77;56.36;99794.25;124830;1093;64288;-74
2021/07/31 07:12:34;;;;;;;2.07;0.63;;;;;;;18.77;55.78;99828.38;125025;1093;64269;-76
2021/07/31 07:15:01;;;;;;;4.13;1.10;;;;;;;18.70;55.38;99801.67;124907;1093;64195;-77
2021/07/31 07:17:28;;;;;;;3.27;0.90;;;;;;;18.64;55.64;99798.13;124964;1093;64195;-78
2021/07/31 07:19:55;;;;;;;1.60;0.87;;;;;;;18.66;56.53;99796.00;124940;1093;64358;-76
2021/07/31 07:22:22;;;;;;;3.83;0.90;;;;;;;18.77;56.01;99805.00;124951;1093;64246;-77
2021/07/31 07:24:49;;;;;;;5.13;0.90;;;;;;;18.76;55.09;99816.79;124973;1093;64189;-75
2021/07/31 07:27:16;;;;;;;4.50;0.90;;;;;;;18.72;55.46;99807.60;124926;1093;64380;-78
2021/07/31 07:29:44;;;;;;;8.93;1.43;;;;;;;18.73;55.53;99780.49;124995;1093;64970;-77
2021/07/31 07:32:11;;;;;;;3.93;1.00;;;;;;;18.70;55.37;99802.50;124939;1093;64265;-78
2021/07/31 07:34:38;;;;;;;1.83;0.97;;;;;;;18.81;55.36;99803.47;124993;1093;65035;-78
2021/07/31 07:37:06;;;;;;;3.70;1.37;;;;;;;18.92;54.95;99807.08;124924;1093;64245;-78
2021/07/31 07:39:33;;;;;;;6.77;1.20;;;;;;;19.02;54.92;99803.67;124984;1093;64380;-77
2021/07/31 07:42:03;;;;;;;3.67;0.97;;;;;;;19.08;54.75;99841.13;124857;1093;66270;-78
2021/07/31 07:44:31;;;;;;;4.63;0.90;;;;;;;19.13;53.73;99821.55;124946;1093;64195;-78
2021/07/31 07:46:58;;;;;;;7.60;1.10;;;;;;;19.15;54.16;99809.48;124967;1093;64269;-78
2021/07/31 07:49:25;;;;;;;2.43;0.87;;;;;;;19.22;54.58;99813.84;124973;1093;64219;-77
2021/07/31 07:51:53;;;;;;;3.53;1.03;;;;;;;19.48;53.36;99818.38;125105;1092;64284;-77
2021/07/31 07:54:20;;;;;;;2.10;0.97;;;;;;;19.54;53.36;99803.91;124936;1093;64589;-79
2021/07/31 07:56:47;;;;;;;6.03;0.97;;;;;;;19.56;52.62;99804.47;124932;1093;64295;-78
2021/07/31 07:59:14;;;;;;;5.37;0.97;;;;;;;19.50;51.90;99818.94;124934;1093;64364;-78
2021/07/31 08:01:45;;;;;;;16.10;1.27;;;;;;;19.61;52.30;99808.27;125238;1093;64262;-76
2021/07/31 08:04:14;;;;;;;2.40;0.80;;;;;;;19.57;52.32;99821.41;124954;1092;64265;-79
2021/07/31 08:06:41;;;;;;;3.33;0.90;;;;;;;19.51;52.75;99822.47;125274;1093;64265;-77
2021/07/31 08:09:09;;;;;;;2.63;1.07;;;;;;;19.55;52.71;99813.63;125007;1092;64266;-78
2021/07/31 08:11:36;;;;;;;2.33;0.83;;;;;;;19.54;52.19;99801.22;124949;1093;64256;-80
2021/07/31 08:14:03;;;;;;;3.20;0.90;;;;;;;19.48;52.38;99823.77;124934;1093;64195;-78
2021/07/31 08:16:30;;;;;;;3.13;1.00;;;;;;;19.35;52.73;99818.80;125004;1093;64280;-82
2021/07/31 08:19:01;;;;;;;1.20;0.63;;;;;;;19.24;53.10;99846.67;125468;1093;64136;-82
2021/07/31 08:21:30;;;;;;;2.63;0.90;;;;;;;19.17;53.91;99809.23;125486;1093;64425;-81
2021/07/31 08:23:57;;;;;;;1.83;0.80;;;;;;;19.11;53.63;99819.11;125173;1093;64307;-80
2021/07/31 08:26:24;;;;;;;2.97;0.80;;;;;;;19.17;54.10;99806.54;125077;1093;64211;-79
2021/07/31 08:28:51;;;;;;;2.67;1.03;;;;;;;19.30;53.43;99816.88;125169;1093;64268;-83
2021/07/31 08:31:20;;;;;;;2.77;1.13;;;;;;;19.28;53.69;99826.27;125066;1092;64192;-79
2021/07/31 08:33:47;;;;;;;2.90;1.00;;;;;;;19.26;53.69;99837.28;124844;1093;64210;-78
2021/07/31 08:36:14;;;;;;;4.93;1.10;;;;;;;19.22;53.88;99851.48;124943;1093;64217;-78
2021/07/31 08:38:41;;;;;;;2.17;0.80;;;;;;;19.08;53.95;99841.13;124877;1092;64584;-78
2021/07/31 08:41:09;;;;;;;2.27;0.90;;;;;;;19.03;54.45;99821.44;124883;1092;64246;-75
2021/07/31 08:43:36;;;;;;;4.80;0.97;;;;;;;19.06;54.59;99835.20;125222;1093;64217;-79
2021/07/31 08:46:08;;;;;;;3.80;0.73;;;;;;;19.06;54.62;99837.88;125025;1093;64339;-78
2021/07/31 08:48:36;;;;;;;2.40;1.00;;;;;;;19.18;54.41;99853.86;125148;1093;64274;-79
2021/07/31 08:51:03;;;;;;;2.10;0.70;;;;;;;19.15;54.53;99825.61;124783;1093;64217;-77
2021/07/31 08:53:30;;;;;;;4.20;1.20;;;;;;;19.17;54.27;99837.97;124841;1093;64336;-78
2021/07/31 08:55:59;;;;;;;1.80;0.70;;;;;;;19.14;54.53;99842.78;124945;1093;64274;-79
2021/07/31 08:58:26;;;;;;;2.90;1.00;;;;;;;19.14;54.37;99845.47;124912;1093;65398;-79
2021/07/31 09:00:56;;;;;;;1.80;0.80;;;;;;;19.08;54.44;99884.14;124917;1092;64195;-78
2021/07/31 09:03:23;;;;;;;5.20;0.90;;;;;;;19.10;55.32;99876.61;124924;1092;64273;-76
2021/07/31 09:05:51;;;;;;;3.93;1.40;;;;;;;19.36;55.02;99871.55;124969;1093;64284;-81
2021/07/31 09:08:18;;;;;;;2.95;0.70;;;;;;;19.50;54.69;99851.22;124949;1093;64242;-78
2021/07/31 09:10:46;;;;;;;2.43;1.17;;;;;;;19.81;54.52;99874.95;124903;1092;64266;-77
2021/07/31 09:13:18;;;;;;;4.07;1.20;;;;;;;19.89;53.91;99864.53;125078;1093;64192;-79
2021/07/31 09:15:54;;;;;;;3.63;1.00;;;;;;;20.00;53.12;99857.34;125240;1093;64263;-76
2021/07/31 09:18:34;;;;;;;5.15;1.05;;;;;;;20.12;53.25;99860.64;125245;1093;64271;-80
2021/07/31 09:21:09;;;;;;;3.00;0.90;;;;;;;20.14;53.64;99863.88;125288;1092;64214;-82
2021/07/31 09:23:46;;;;;;;4.00;0.90;;;;;;;20.27;53.74;99872.59;125375;1093;64268;-83
2021/07/31 09:26:16;;;;;;;2.10;1.00;;;;;;;20.17;53.33;99873.34;125395;1093;64287;-77
2021/07/31 09:28:45;;;;;;;3.60;1.03;;;;;;;20.05;53.43;99870.83;125387;1093;64192;-79
2021/07/31 09:31:18;;;;;;;2.37;1.20;;;;;;;19.91;54.06;99875.02;125248;1093;64284;-79
2021/07/31 09:33:48;;;;;;;3.10;1.40;;;;;;;19.72;54.79;99920.33;125005;1092;64214;-79
2021/07/31 09:36:16;;;;;;;4.60;1.20;;;;;;;19.70;54.70;99874.86;125046;1093;64392;-79
2021/07/31 09:38:49;;;;;;;2.10;1.10;;;;;;;19.61;55.36;99865.58;125034;1093;64587;-79
2021/07/31 09:41:24;;;;;;;3.80;1.00;;;;;;;19.52;55.61;99902.89;125017;1092;64221;-83
2021/07/31 09:44:17;;;;;;;3.53;1.00;;;;;;;19.47;55.86;99864.39;124980;1093;64266;-80
2021/07/31 09:46:47;;;;;;;3.27;1.20;;;;;;;19.52;55.96;99867.92;124770;1093;64341;-78
2021/07/31 09:49:22;;;;;;;3.70;1.20;;;;;;;19.59;55.76;99870.40;125021;1093;64214;-78
2021/07/31 09:51:52;;;;;;;2.70;0.90;;;;;;;19.63;55.19;99865.33;124885;1093;64318;-79
2021/07/31 09:54:21;;;;;;;4.43;0.97;;;;;;;19.90;55.19;99862.64;124843;1093;64163;-81
2021/07/31 09:56:51;;;;;;;2.93;1.00;;;;;;;20.23;53.95;99860.71;124930;1093;64291;-81
2021/07/31 09:59:21;;;;;;;4.10;0.83;;;;;;;20.45;53.59;99868.68;124892;1093;64301;-79
2021/07/31 10:01:59;;;;;;;2.20;0.97;;;;;;;20.85;52.88;99870.00;125065;1093;64282;-78
2021/07/31 10:04:27;;;;;;;3.10;1.10;;;;;;;21.05;51.90;99858.47;125112;1093;64297;-79
2021/07/31 10:06:58;;;;;;;2.27;0.83;;;;;;;21.05;50.97;99872.75;124745;1093;64391;-80
2021/07/31 10:09:26;;;;;;;2.40;0.90;;;;;;;21.01;50.00;99868.95;125045;1093;64354;-80
2021/07/31 10:11:54;;;;;;;2.43;0.90;;;;;;;21.09;51.02;99865.76;124697;1093;64333;-80
2021/07/31 10:14:23;;;;;;;3.47;1.00;;;;;;;21.07;50.32;99870.60;124960;1092;64410;-79
2021/07/31 10:16:51;;;;;;;2.93;1.10;;;;;;;20.83;50.66;99891.81;125046;1093;64285;-80
2021/07/31 10:19:19;;;;;;;2.93;1.10;;;;;;;20.57;51.78;99861.18;124937;1093;64263;-80
2021/07/31 10:22:00;;;;;;;3.67;1.17;;;;;;;20.61;52.16;99899.23;125060;1093;64272;-79
2021/07/31 10:24:28;;;;;;;3.43;1.33;;;;;;;20.69;51.20;99869.91;124869;1093;64375;-79
2021/07/31 10:27:17;;;;;;;3.13;1.27;;;;;;;20.84;52.26;99866.47;124975;1092;64355;-81
2021/07/31 10:29:46;;;;;;;4.43;1.20;;;;;;;20.98;50.47;99856.02;125393;1093;64266;-79
2021/07/31 10:32:20;;;;;;;5.70;1.17;;;;;;;21.02;49.95;99848.19;125474;1093;64304;-84
2021/07/31 10:34:56;;;;;;;2.03;0.97;;;;;;;21.33;49.24;99846.39;125195;1092;64205;-79
2021/07/31 10:37:36;;;;;;;4.50;1.13;;;;;;;21.65;49.05;99851.59;125134;1093;64294;-80
2021/07/31 10:40:09;;;;;;;4.60;1.27;;;;;;;21.68;48.51;99886.16;125310;1093;64128;-78
2021/07/31 10:42:51;;;;;;;3.80;1.33;;;;;;;21.71;48.42;99852.41;125283;1092;64263;-79
2021/07/31 10:45:23;;;;;;;4.53;1.30;;;;;;;21.77;47.52;99868.33;125024;1092;64310;-79
2021/07/31 10:47:58;;;;;;;1.97;0.90;;;;;;;21.95;48.42;99864.30;124969;1093;64336;-79
2021/07/31 10:50:34;;;;;;;3.40;0.93;;;;;;;22.08;46.87;99845.91;124992;1093;64412;-81
2021/07/31 10:53:11;;;;;;;2.80;0.87;;;;;;;22.15;46.92;99865.36;125270;1093;64397;-78
2021/07/31 10:55:39;;;;;;;3.83;1.43;;;;;;;21.91;47.41;99863.22;125069;1093;64262;-77
2021/07/31 10:58:12;;;;;;;5.03;1.10;;;;;;;21.77;48.90;99862.13;125098;1093;64285;-77
2021/07/31 11:00:52;;;;;;;4.53;1.10;;;;;;;21.79;48.61;99854.58;125317;1093;64378;-78
2021/07/31 11:03:24;;;;;;;3.07;1.23;;;;;;;21.70;48.44;99867.80;124990;1093;64237;-79
2021/07/31 11:05:51;;;;;;;2.87;1.10;;;;;;;21.63;48.28;99869.13;125047;1093;64317;-78
2021/07/31 11:08:20;;;;;;;6.03;1.10;;;;;;;21.77;48.11;99875.63;125205;1093;64263;-79
2021/07/31 11:10:49;;;;;;;2.45;0.95;;;;;;;21.86;47.90;99865.91;125581;1093;64266;-80
2021/07/31 11:13:19;;;;;;;2.50;0.87;;;;;;;21.85;48.25;99875.09;124975;1093;64342;-79
2021/07/31 11:16:07;;;;;;;2.33;0.90;;;;;;;21.92;47.76;99882.92;124982;1093;64259;-79
2021/07/31 11:18:37;;;;;;;3.47;1.33;;;;;;;22.15;48.02;99859.95;124981;1092;64386;-80
2021/07/31 11:21:16;;;;;;;3.75;0.90;;;;;;;22.17;47.24;99899.12;125092;1093;64288;-80
2021/07/31 11:23:50;;;;;;;3.27;1.20;;;;;;;22.16;47.33;99880.47;125427;1093;64282;-81
2021/07/31 11:26:39;;;;;;;2.70;1.00;;;;;;;22.06;47.82;99875.08;125226;1092;64285;-78
2021/07/31 11:29:20;;;;;;;3.63;1.27;;;;;;;21.95;48.28;99877.80;124966;1093;64361;-79
2021/07/31 11:32:01;;;;;;;3.60;0.80;;;;;;;21.93;48.44;99895.33;124965;1093;64265;-77